Pagina principale
METAR-TAF:

METAR-TAF

Aeroporti :

Manchester, New Hampshire, Stati Uniti

latitudine: 42-55-45N, longitudine: 071-26-09W, altezza: 71 m

Osservazione

Il bollettino è stato emesso 47 minuti fa, alle 17:53 UTC
Vento 11 kt da nord-ovest con raffiche fino a 16 kt
Temperature 6°C
Umidità 28%
Pressione 1022 hPa
Visibilità: 16.1 km
Poco nuvoloso ad un'altezza di 6500 ft

METAR: KMHT 181753Z 31011G16KT 10SM FEW065 06/M11 A3018 RMK AO2 SLP237 T00611106 10067 20028 50001

Ora: 14:40 (18:40 UTC)

Previsione

Il bollettino è stato emesso 1 ora e 20 minuti fa, alle 17:20 UTC
Previsione valida dal 18 alle 18 UTC al 19 alle 18 UTC
Vento 10 kt da ovest/nord-ovest con raffiche fino a 16 kt
Visibilità: 10 km
Poco nuvoloso ad un'altezza di 25000 ft
A partire da 19 alle 0200 UTC
Vento 5 kt da ovest
Visibilità: 10 km
Poco nuvoloso ad un'altezza di 25000 ft

TAF: KMHT 181720Z 1818/1918 30010G16KT P6SM FEW250 FM190200 26005KT P6SM FEW250

Osservazioni e previsioni meteorologiche di più di 4000 aeroporti (messaggi METAR e TAF).

Le stazioni disponibili sono rappresentate dai dischi gialli e rossi sulla carta.

Puntare il mouse per vedere il nome della stazione.

Clicca sopra per visualizzare le osservazioni e previsioni meteorologiche.

Per cambiare la mappa : fare clic sui pulsanti verdi con una croce nera per ingrandire, il pulsante verde con un trattino per diminuire, o sulla freccia verde per le mappe adiacenti.


METAR-TAF: